createdAt,value
2018-03-08T21:02:49.888Z,5.20
2018-03-08T21:05:21.349Z,5.30
2018-03-08T21:07:51.973Z,5.20
2018-03-08T21:13:25.426Z,5.20
2018-03-08T21:15:56.890Z,5.40
2018-03-08T21:18:27.856Z,5.30
2018-03-08T21:20:58.961Z,5.30
2018-03-08T21:23:30.811Z,5.30
2018-03-08T21:26:02.850Z,5.30
2018-03-08T21:28:34.516Z,5.30
2018-03-08T21:31:10.247Z,5.50
2018-03-08T21:33:46.020Z,5.40
2018-03-08T21:36:23.289Z,5.50
2018-03-08T21:38:53.851Z,5.60
2018-03-08T21:41:29.335Z,5.70
2018-03-08T21:44:05.189Z,5.70
2018-03-08T21:46:36.373Z,5.80
2018-03-08T21:49:11.693Z,5.80
2018-03-08T21:51:48.028Z,5.90
2018-03-08T21:54:24.954Z,6.10
2018-03-08T21:56:56.217Z,6.20
2018-03-08T21:59:32.126Z,6.30
2018-03-08T22:02:07.787Z,6.20
2018-03-08T22:04:43.416Z,6.10
2018-03-08T22:07:18.635Z,6.20
2018-03-08T22:09:52.910Z,6.20
2018-03-08T22:12:28.219Z,6.20
2018-03-08T22:14:59.495Z,6.30
2018-03-08T22:17:34.826Z,6.30
2018-03-08T22:20:11.754Z,6.20
2018-03-08T22:22:47.443Z,6.10
2018-03-08T22:25:23.293Z,6.20
2018-03-08T22:27:59.575Z,6.10
2018-03-08T22:30:31.784Z,6.10
2018-03-08T22:33:02.976Z,6.20
2018-03-08T22:35:38.853Z,6.30
2018-03-08T22:38:09.323Z,6.30
2018-03-08T22:40:45.079Z,6.40
2018-03-08T22:43:20.897Z,6.40
2018-03-08T22:45:52.151Z,6.50
2018-03-08T22:51:20.762Z,6.60
2018-03-08T22:53:52.797Z,6.70
2018-03-08T22:56:29.443Z,6.40
2018-03-08T22:59:06.231Z,6.00
2018-03-08T23:02:09.581Z,5.60
2018-03-08T23:04:40.477Z,5.30
2018-03-08T23:07:16.351Z,4.80
2018-03-08T23:09:47.557Z,4.30
2018-03-08T23:12:23.798Z,3.90
2018-03-08T23:14:59.371Z,3.80
2018-03-08T23:17:35.378Z,3.80
2018-03-08T23:20:10.613Z,3.70
2018-03-08T23:22:46.947Z,3.60
2018-03-08T23:25:23.606Z,3.60
2018-03-08T23:28:00.121Z,3.50
2018-03-08T23:30:32.393Z,3.60
2018-03-08T23:33:08.169Z,3.50
2018-03-08T23:35:44.274Z,3.50
2018-03-08T23:38:15.545Z,3.50
2018-03-08T23:40:46.463Z,3.60
2018-03-08T23:43:22.282Z,3.60
2018-03-08T23:45:54.255Z,3.60
2018-03-08T23:48:30.721Z,3.50
2018-03-08T23:51:06.048Z,3.50
2018-03-08T23:53:41.685Z,3.40
2018-03-08T23:56:19.292Z,3.30
2018-03-08T23:58:55.860Z,3.20
